createdAt,value
2019-02-14T00:01:17.231Z,101671.66
2019-02-14T00:03:46.605Z,101676.52
2019-02-14T00:06:16.219Z,101667.75
2019-02-14T00:08:45.597Z,101669.70
2019-02-14T00:11:15.251Z,101669.14
2019-02-14T00:13:44.616Z,101666.92
2019-02-14T00:16:13.984Z,101668.36
2019-02-14T00:18:43.378Z,101657.97
2019-02-14T00:21:13.883Z,101659.31
2019-02-14T00:23:46.817Z,101663.39
2019-02-14T00:26:16.191Z,101666.22
2019-02-14T00:28:45.562Z,101664.06
2019-02-14T00:31:15.191Z,101662.01
2019-02-14T00:33:45.232Z,101661.08
2019-02-14T00:36:15.267Z,101658.39
2019-02-14T00:38:45.275Z,101652.20
2019-02-14T00:41:15.298Z,101652.25
2019-02-14T00:43:45.423Z,101654.86
2019-02-14T00:46:15.497Z,101657.92
2019-02-14T00:48:45.541Z,101644.58
2019-02-14T00:51:15.610Z,101647.56
2019-02-14T00:53:44.995Z,101639.72
2019-02-14T00:56:14.389Z,101637.92
2019-02-14T00:58:47.223Z,101639.41
2019-02-14T01:01:17.776Z,101637.58
2019-02-14T01:03:47.924Z,101640.09
2019-02-14T01:06:17.963Z,101643.70
2019-02-14T01:08:47.324Z,101643.02
2019-02-14T01:11:16.691Z,101632.42
2019-02-14T01:13:46.060Z,101641.05
2019-02-14T01:16:15.436Z,101636.59
2019-02-14T01:18:44.806Z,101636.50
2019-02-14T01:21:14.183Z,101637.36
2019-02-14T01:23:43.540Z,101630.07
2019-02-14T01:26:15.851Z,101626.08
2019-02-14T01:28:45.203Z,101633.37
2019-02-14T01:31:14.652Z,101638.30
2019-02-14T01:33:44.016Z,101640.02
2019-02-14T01:36:13.761Z,101640.91
2019-02-14T01:38:43.124Z,101636.67
2019-02-14T01:41:12.504Z,101636.59
2019-02-14T01:43:41.861Z,101637.84
2019-02-14T01:46:11.246Z,101645.45
2019-02-14T01:48:40.660Z,101649.22
2019-02-14T01:51:10.048Z,101639.95
2019-02-14T01:53:39.402Z,101647.48
2019-02-14T01:56:08.772Z,101649.30
2019-02-14T01:58:38.157Z,101655.87
2019-02-14T02:01:07.991Z,101649.06
2019-02-14T02:03:37.353Z,101645.35
2019-02-14T02:06:06.798Z,101642.16
2019-02-14T02:08:36.170Z,101640.98
2019-02-14T02:11:06.306Z,101639.16
2019-02-14T02:13:35.673Z,101637.27
2019-02-14T02:16:05.040Z,101637.13
2019-02-14T02:18:35.332Z,101637.13
2019-02-14T02:21:04.893Z,101643.22
2019-02-14T02:23:34.945Z,101643.22
2019-02-14T02:26:04.885Z,101641.47
2019-02-14T02:28:34.255Z,101642.27
2019-02-14T02:31:03.638Z,101640.20
2019-02-14T02:33:32.998Z,101641.30
2019-02-14T02:36:02.375Z,101645.47
2019-02-14T02:38:31.740Z,101648.42
2019-02-14T02:41:01.099Z,101645.45
2019-02-14T02:43:30.459Z,101640.58
2019-02-14T02:46:00.080Z,101641.10
2019-02-14T02:48:29.434Z,101637.91
2019-02-14T02:50:58.814Z,101629.52
2019-02-14T02:53:28.176Z,101633.91
2019-02-14T02:55:57.555Z,101634.69
2019-02-14T02:58:28.447Z,101623.49
2019-02-14T03:00:57.820Z,101624.65
2019-02-14T03:03:27.182Z,101624.59
2019-02-14T03:05:56.881Z,101630.40
2019-02-14T03:08:26.240Z,101627.34
2019-02-14T03:10:55.613Z,101635.48
2019-02-14T03:13:24.965Z,101629.48
2019-02-14T03:15:54.345Z,101620.00
2019-02-14T03:18:23.699Z,101629.87
2019-02-14T03:20:53.079Z,101629.63
2019-02-14T03:23:22.442Z,101628.00
2019-02-14T03:25:52.045Z,101629.63
2019-02-14T03:28:21.404Z,101621.03
2019-02-14T03:30:51.057Z,101626.66
2019-02-14T03:33:20.430Z,101622.27
2019-02-14T03:35:50.113Z,101626.44
2019-02-14T03:38:19.743Z,101627.68
2019-02-14T03:40:49.111Z,101629.34
2019-02-14T03:43:18.479Z,101628.34
2019-02-14T03:45:47.843Z,101628.62
2019-02-14T03:48:17.205Z,101627.39
2019-02-14T03:50:46.573Z,101624.56
2019-02-14T03:53:15.947Z,101629.27
2019-02-14T03:55:45.314Z,101621.27
2019-02-14T03:58:14.687Z,101624.27
2019-02-14T04:00:44.413Z,101629.74
2019-02-14T04:03:13.792Z,101632.42
2019-02-14T04:05:43.152Z,101631.78
2019-02-14T04:08:12.527Z,101632.97
2019-02-14T04:10:41.894Z,101634.20
2019-02-14T04:13:11.522Z,101638.34
2019-02-14T04:15:42.265Z,101642.34
2019-02-14T04:18:12.526Z,101643.91
2019-02-14T04:20:42.218Z,101643.80
2019-02-14T04:23:12.262Z,101639.02
2019-02-14T04:25:42.306Z,101633.63
2019-02-14T04:28:14.120Z,101639.63
2019-02-14T04:30:43.479Z,101640.48
2019-02-14T04:33:13.564Z,101644.41
2019-02-14T04:35:42.940Z,101636.72
2019-02-14T04:38:12.353Z,101641.06
2019-02-14T04:40:41.721Z,101633.50
2019-02-14T04:43:11.095Z,101646.60
2019-02-14T04:45:40.471Z,101644.25
2019-02-14T04:48:09.857Z,101646.28
2019-02-14T04:50:39.218Z,101652.55
2019-02-14T04:53:08.597Z,101655.35
2019-02-14T04:55:39.150Z,101657.18
2019-02-14T04:58:08.895Z,101659.20
2019-02-14T05:00:38.258Z,101659.05
2019-02-14T05:03:07.633Z,101651.64
2019-02-14T05:05:36.995Z,101659.25
2019-02-14T05:08:06.370Z,101659.48
2019-02-14T05:10:35.747Z,101662.14
2019-02-14T05:13:05.182Z,101660.27
2019-02-14T05:15:34.544Z,101651.94
2019-02-14T05:18:03.929Z,101649.27
2019-02-14T05:20:33.283Z,101654.84
2019-02-14T05:23:02.963Z,101653.91
2019-02-14T05:25:32.311Z,101652.89
2019-02-14T05:28:01.694Z,101649.18
2019-02-14T05:30:31.059Z,101648.27
2019-02-14T05:33:00.422Z,101649.05
2019-02-14T05:35:29.799Z,101643.47
2019-02-14T05:37:59.159Z,101643.33
2019-02-14T05:40:28.523Z,101641.59
2019-02-14T05:42:57.959Z,101650.62
2019-02-14T05:45:27.380Z,101641.36
2019-02-14T05:47:56.829Z,101646.22
2019-02-14T05:50:26.459Z,101647.81
2019-02-14T05:52:55.828Z,101654.96
2019-02-14T05:55:25.447Z,101648.29
2019-02-14T05:57:54.825Z,101652.04
2019-02-14T06:00:24.191Z,101651.49
2019-02-14T06:02:53.554Z,101653.45
2019-02-14T06:05:22.983Z,101656.18
2019-02-14T06:07:53.374Z,101657.75
2019-02-14T06:10:23.065Z,101664.25
2019-02-14T06:12:52.441Z,101664.17
2019-02-14T06:15:21.798Z,101671.53
2019-02-14T06:17:51.506Z,101669.47
2019-02-14T06:20:20.860Z,101677.63
2019-02-14T06:22:50.235Z,101677.06
2019-02-14T06:25:19.614Z,101678.67
2019-02-14T06:27:49.306Z,101679.31
2019-02-14T06:30:18.689Z,101685.34
2019-02-14T06:32:48.050Z,101687.83
2019-02-14T06:35:17.406Z,101684.22
2019-02-14T06:37:46.784Z,101689.17
2019-02-14T06:40:16.147Z,101693.21
2019-02-14T06:42:45.524Z,101700.42
2019-02-14T06:45:17.210Z,101703.69
2019-02-14T06:47:46.581Z,101704.47
2019-02-14T06:50:15.949Z,101710.39
2019-02-14T06:52:45.541Z,101709.46
2019-02-14T06:55:15.225Z,101708.11
2019-02-14T06:57:44.605Z,101710.38
2019-02-14T07:00:17.527Z,101708.70
2019-02-14T07:02:46.891Z,101704.79
2019-02-14T07:05:16.255Z,101703.84
2019-02-14T07:07:45.650Z,101705.34
2019-02-14T07:10:14.997Z,101708.17
2019-02-14T07:12:44.377Z,101709.77
2019-02-14T07:15:15.159Z,101704.45
2019-02-14T07:17:44.560Z,101716.29
2019-02-14T07:20:18.456Z,101718.39
2019-02-14T07:22:47.820Z,101717.34
2019-02-14T07:25:17.193Z,101720.56
2019-02-14T07:27:46.573Z,101717.98
2019-02-14T07:30:29.022Z,101720.41
2019-02-14T07:32:58.384Z,101727.24
2019-02-14T07:35:27.767Z,101719.31
2019-02-14T07:37:57.124Z,101714.53
2019-02-14T07:40:26.506Z,101711.86
2019-02-14T07:42:56.120Z,101714.27
2019-02-14T07:45:26.083Z,101720.36
2019-02-14T07:47:55.498Z,101711.78
2019-02-14T07:50:25.200Z,101718.39
2019-02-14T07:52:54.708Z,101719.61
2019-02-14T07:55:24.122Z,101722.11
2019-02-14T07:57:53.474Z,101714.12
2019-02-14T08:00:22.847Z,101721.78
2019-02-14T08:02:52.470Z,101725.85
2019-02-14T08:05:21.859Z,101724.40
2019-02-14T08:07:51.251Z,101723.42
2019-02-14T08:10:20.678Z,101718.33
2019-02-14T08:12:50.072Z,101713.92
2019-02-14T08:15:20.396Z,101721.68
2019-02-14T08:17:49.785Z,101713.61
2019-02-14T08:20:22.638Z,101713.97
2019-02-14T08:22:52.018Z,101710.08
2019-02-14T08:25:21.406Z,101711.56
2019-02-14T08:27:51.814Z,101708.88
2019-02-14T08:30:21.744Z,101705.55
2019-02-14T08:32:51.173Z,101703.19
2019-02-14T08:35:20.530Z,101712.64
2019-02-14T08:37:50.162Z,101714.09
2019-02-14T08:40:29.564Z,101714.06
2019-02-14T08:42:58.941Z,101717.28
2019-02-14T08:45:28.315Z,101716.43
2019-02-14T08:47:57.700Z,101716.62
2019-02-14T08:50:27.097Z,101711.00
2019-02-14T08:52:56.469Z,101706.92
2019-02-14T08:55:25.938Z,101705.42
2019-02-14T08:57:55.315Z,101702.41
2019-02-14T09:00:24.786Z,101698.72
2019-02-14T09:02:54.166Z,101699.25
2019-02-14T09:05:23.560Z,101697.87
2019-02-14T09:07:54.919Z,101694.34
2019-02-14T09:10:24.053Z,101690.09
2019-02-14T09:12:53.429Z,101686.97
2019-02-14T09:15:22.819Z,101689.53
2019-02-14T09:17:52.454Z,101686.31
2019-02-14T09:20:24.855Z,101684.75
2019-02-14T09:22:54.244Z,101687.14
2019-02-14T09:25:23.926Z,101689.31
2019-02-14T09:27:53.309Z,101686.80
2019-02-14T09:30:22.708Z,101681.59
2019-02-14T09:32:52.085Z,101684.14
2019-02-14T09:35:21.477Z,101691.13
2019-02-14T09:37:50.849Z,101691.73
2019-02-14T09:40:20.427Z,101688.52
2019-02-14T09:42:49.799Z,101695.27
2019-02-14T09:45:20.355Z,101689.02
2019-02-14T09:47:49.818Z,101695.73
2019-02-14T09:50:19.220Z,101697.92
2019-02-14T09:52:51.437Z,101696.16
2019-02-14T09:55:20.824Z,101690.72
2019-02-14T09:57:50.225Z,101691.89
2019-02-14T10:00:20.352Z,101690.93
2019-02-14T10:02:49.701Z,101689.62
2019-02-14T10:05:19.104Z,101695.22
2019-02-14T10:07:48.464Z,101685.86
2019-02-14T10:10:24.296Z,101684.37
2019-02-14T10:12:53.663Z,101689.45
2019-02-14T10:15:23.329Z,101689.36
2019-02-14T10:17:52.703Z,101692.23
2019-02-14T10:20:22.099Z,101691.21
2019-02-14T10:22:51.526Z,101693.53
2019-02-14T10:25:20.896Z,101691.70
2019-02-14T10:27:50.342Z,101684.67
2019-02-14T10:30:22.720Z,101685.95
2019-02-14T10:32:52.107Z,101682.25
2019-02-14T10:35:21.528Z,101687.41
2019-02-14T10:37:50.874Z,101684.00
2019-02-14T10:40:20.577Z,101681.95
2019-02-14T10:42:50.208Z,101689.63
2019-02-14T10:45:21.991Z,101690.22
2019-02-14T10:47:51.391Z,101694.96
2019-02-14T10:50:20.763Z,101696.00
2019-02-14T10:52:50.141Z,101693.00
2019-02-14T10:55:19.814Z,101690.55
2019-02-14T10:57:49.218Z,101681.64
2019-02-14T11:00:26.672Z,101684.77
2019-02-14T11:02:56.952Z,101678.17
2019-02-14T11:05:26.329Z,101683.00
2019-02-14T11:07:55.703Z,101679.95
2019-02-14T11:10:25.092Z,101679.13
2019-02-14T11:12:54.470Z,101682.00
2019-02-14T11:15:25.573Z,101680.98
2019-02-14T11:17:54.965Z,101672.73
2019-02-14T11:20:24.352Z,101670.89
2019-02-14T11:22:54.887Z,101671.20
2019-02-14T11:25:38.771Z,101671.33
2019-02-14T11:28:08.138Z,101664.34
2019-02-14T11:30:37.538Z,101667.97
2019-02-14T11:33:06.927Z,101662.22
2019-02-14T11:35:36.295Z,101667.72
2019-02-14T11:38:05.837Z,101654.97
2019-02-14T11:40:35.297Z,101655.39
2019-02-14T11:43:04.672Z,101651.17
2019-02-14T11:45:34.048Z,101651.52
2019-02-14T11:48:03.425Z,101652.66
2019-02-14T11:50:32.881Z,101652.84
2019-02-14T11:53:02.267Z,101651.28
2019-02-14T11:55:31.644Z,101639.19
2019-02-14T11:58:01.020Z,101634.44
2019-02-14T12:00:30.389Z,101635.75
2019-02-14T12:02:59.792Z,101635.83
2019-02-14T12:05:29.156Z,101629.15
2019-02-14T12:07:58.541Z,101630.84
2019-02-14T12:10:27.937Z,101630.30
2019-02-14T12:12:57.332Z,101624.45
2019-02-14T12:15:26.971Z,101626.30
2019-02-14T12:17:56.355Z,101619.09
2019-02-14T12:20:26.039Z,101621.19
2019-02-14T12:22:55.424Z,101621.64
2019-02-14T12:25:30.809Z,101618.02
2019-02-14T12:28:00.198Z,101617.30
2019-02-14T12:30:29.647Z,101618.91
2019-02-14T12:32:59.055Z,101613.20
2019-02-14T12:35:28.435Z,101612.38
2019-02-14T12:37:57.825Z,101602.16
2019-02-14T12:40:27.202Z,101602.22
2019-02-14T12:42:56.578Z,101599.03
2019-02-14T12:45:27.278Z,101588.77
2019-02-14T12:47:56.654Z,101582.16
2019-02-14T12:50:26.028Z,101574.83
2019-02-14T12:52:55.413Z,101572.93
2019-02-14T12:55:24.798Z,101573.81
2019-02-14T12:57:54.185Z,101569.23
2019-02-14T13:00:24.804Z,101571.59
2019-02-14T13:02:54.195Z,101564.46
2019-02-14T13:05:23.578Z,101562.91
2019-02-14T13:07:52.977Z,101567.83
2019-02-14T13:10:22.378Z,101564.26
2019-02-14T13:12:52.114Z,101564.63
2019-02-14T13:15:25.225Z,101558.73
2019-02-14T13:17:54.958Z,101553.13
2019-02-14T13:20:24.581Z,101551.10
2019-02-14T13:22:54.232Z,101541.36
2019-02-14T13:25:23.597Z,101544.81
2019-02-14T13:27:53.001Z,101548.33
2019-02-14T13:30:25.595Z,101547.07
2019-02-14T13:32:54.984Z,101543.38
2019-02-14T13:35:24.367Z,101540.13
2019-02-14T13:37:53.755Z,101537.69
2019-02-14T13:40:23.386Z,101532.86
2019-02-14T13:42:52.780Z,101531.33
2019-02-14T13:45:25.616Z,101532.23
2019-02-14T13:47:55.000Z,101530.84
2019-02-14T13:50:24.630Z,101534.09
2019-02-14T13:52:54.026Z,101535.05
2019-02-14T13:55:23.400Z,101533.97
2019-02-14T13:57:53.075Z,101532.69
2019-02-14T14:00:28.965Z,101538.70
2019-02-14T14:02:58.337Z,101540.18
2019-02-14T14:05:27.718Z,101537.64
2019-02-14T14:07:57.099Z,101537.20
2019-02-14T14:10:26.497Z,101543.30
2019-02-14T14:12:55.872Z,101540.87
2019-02-14T14:15:26.392Z,101537.59
2019-02-14T14:17:56.392Z,101538.72
2019-02-14T14:20:25.769Z,101540.77
2019-02-14T14:22:55.169Z,101543.34
2019-02-14T14:25:24.539Z,101547.45
2019-02-14T14:27:53.945Z,101541.10
2019-02-14T14:30:23.627Z,101536.98
2019-02-14T14:32:53.003Z,101537.02
2019-02-14T14:35:22.379Z,101540.48
2019-02-14T14:37:51.771Z,101536.55
2019-02-14T14:40:21.204Z,101533.79
2019-02-14T14:42:52.259Z,101540.77
2019-02-14T14:45:39.707Z,101539.13
2019-02-14T14:48:30.368Z,101530.67
2019-02-14T14:50:59.749Z,101526.35
2019-02-14T14:53:29.449Z,101519.44
2019-02-14T14:56:02.292Z,101517.87
2019-02-14T14:58:32.077Z,101521.94
2019-02-14T15:01:01.610Z,101521.50
2019-02-14T15:03:31.085Z,101514.86
2019-02-14T15:06:03.403Z,101514.59
2019-02-14T15:08:34.555Z,101515.11
2019-02-14T15:11:04.175Z,101518.22
2019-02-14T15:13:34.881Z,101513.14
2019-02-14T15:16:05.068Z,101511.11
2019-02-14T15:18:35.143Z,101509.05
2019-02-14T15:21:04.687Z,101502.25
2019-02-14T15:23:34.417Z,101505.84
2019-02-14T15:26:04.014Z,101502.17
2019-02-14T15:28:33.537Z,101496.47
2019-02-14T15:31:02.973Z,101499.73
2019-02-14T15:33:32.371Z,101502.65
2019-02-14T15:36:03.528Z,101501.61
2019-02-14T15:38:34.618Z,101502.23
2019-02-14T15:41:04.230Z,101499.23
2019-02-14T15:43:33.680Z,101497.50
2019-02-14T15:46:03.138Z,101500.45
2019-02-14T15:48:33.131Z,101498.76
2019-02-14T15:51:02.563Z,101492.48
2019-02-14T15:53:32.133Z,101500.20
2019-02-14T15:56:03.272Z,101492.68
2019-02-14T15:58:33.162Z,101493.33
2019-02-14T16:01:02.730Z,101484.89
2019-02-14T16:03:32.164Z,101488.30
2019-02-14T16:06:03.899Z,101485.95
2019-02-14T16:08:36.037Z,101484.00
2019-02-14T16:11:10.153Z,101477.27
2019-02-14T16:13:39.523Z,101478.61
2019-02-14T16:16:08.980Z,101486.50
2019-02-14T16:18:40.892Z,101482.06
2019-02-14T16:21:10.414Z,101476.95
2019-02-14T16:23:40.155Z,101483.20
2019-02-14T16:26:10.417Z,101485.14
2019-02-14T16:28:40.179Z,101483.25
2019-02-14T16:31:12.380Z,101480.28
2019-02-14T16:33:42.135Z,101481.97
2019-02-14T16:36:13.194Z,101478.94
2019-02-14T16:38:44.576Z,101477.68
2019-02-14T16:41:14.263Z,101482.11
2019-02-14T16:43:43.799Z,101476.54
2019-02-14T16:46:13.181Z,101476.98
2019-02-14T16:48:42.569Z,101475.31
2019-02-14T16:51:14.838Z,101477.53
2019-02-14T16:53:44.275Z,101479.89
2019-02-14T16:56:13.716Z,101480.26
2019-02-14T16:58:43.508Z,101476.45
2019-02-14T17:01:13.010Z,101479.64
2019-02-14T17:03:42.536Z,101480.16
2019-02-14T17:06:12.038Z,101485.94
2019-02-14T17:08:41.755Z,101483.52
2019-02-14T17:11:11.343Z,101490.27
2019-02-14T17:13:40.760Z,101491.70
2019-02-14T17:16:10.247Z,101494.94
2019-02-14T17:18:42.739Z,101501.13
2019-02-14T17:21:12.701Z,101498.16
2019-02-14T17:23:44.900Z,101508.42
2019-02-14T17:26:14.383Z,101504.20
2019-02-14T17:28:43.727Z,101502.13
2019-02-14T17:31:13.240Z,101504.95
2019-02-14T17:33:43.646Z,101506.76
2019-02-14T17:36:13.112Z,101503.34
2019-02-14T17:38:42.627Z,101502.48
2019-02-14T17:41:12.579Z,101506.61
2019-02-14T17:43:41.984Z,101513.28
2019-02-14T17:46:11.389Z,101514.05
2019-02-14T17:48:42.011Z,101517.15
2019-02-14T17:51:11.437Z,101514.74
2019-02-14T17:53:40.840Z,101512.75
2019-02-14T17:56:11.731Z,101515.36
2019-02-14T17:58:41.509Z,101513.42
2019-02-14T18:01:11.764Z,101514.37
2019-02-14T18:03:43.937Z,101514.67
2019-02-14T18:06:13.764Z,101511.67
2019-02-14T18:08:43.162Z,101511.34
2019-02-14T18:11:12.585Z,101505.59
2019-02-14T18:13:41.966Z,101503.20
2019-02-14T18:16:11.365Z,101504.41
2019-02-14T18:18:40.805Z,101498.73
2019-02-14T18:21:11.835Z,101502.70
2019-02-14T18:23:53.776Z,101498.33
2019-02-14T18:26:23.304Z,101502.03
2019-02-14T18:28:53.363Z,101499.74
2019-02-14T18:31:22.778Z,101498.66
2019-02-14T18:33:52.526Z,101493.63
2019-02-14T18:36:21.881Z,101497.80
2019-02-14T18:38:51.283Z,101501.78
2019-02-14T18:41:20.935Z,101502.40
2019-02-14T18:43:50.314Z,101506.74
2019-02-14T18:46:19.717Z,101511.54
2019-02-14T18:48:49.168Z,101512.94
2019-02-14T18:51:20.254Z,101505.16
2019-02-14T18:53:49.677Z,101502.02
2019-02-14T18:56:19.124Z,101496.28
2019-02-14T18:58:48.490Z,101501.69
2019-02-14T19:01:42.319Z,101496.86
2019-02-14T19:04:13.507Z,101505.73
2019-02-14T19:06:45.933Z,101499.67
2019-02-14T19:09:17.230Z,101507.52
2019-02-14T19:11:46.959Z,101499.20
2019-02-14T19:14:17.391Z,101499.77
2019-02-14T19:16:46.914Z,101496.89
2019-02-14T19:19:19.912Z,101497.00
2019-02-14T19:21:50.682Z,101490.25
2019-02-14T19:24:22.878Z,101489.32
2019-02-14T19:27:11.061Z,101483.23
2019-02-14T19:29:46.603Z,101497.02
2019-02-14T19:32:16.276Z,101498.11
2019-02-14T19:34:46.078Z,101493.27
2019-02-14T19:37:17.197Z,101487.43
2019-02-14T19:39:46.662Z,101491.34
2019-02-14T19:42:16.293Z,101488.25
2019-02-14T19:44:45.762Z,101492.30
2019-02-14T19:47:20.509Z,101494.76
2019-02-14T19:49:53.033Z,101489.81
2019-02-14T19:52:27.471Z,101492.11
2019-02-14T19:54:57.725Z,101491.20
2019-02-14T19:57:29.267Z,101487.41
2019-02-14T19:59:58.710Z,101482.28
2019-02-14T20:02:31.121Z,101478.48
2019-02-14T20:05:00.633Z,101475.71
2019-02-14T20:07:30.103Z,101473.89
2019-02-14T20:09:59.579Z,101474.14
2019-02-14T20:12:28.996Z,101470.37
2019-02-14T20:14:58.362Z,101470.61
2019-02-14T20:17:28.003Z,101477.35
2019-02-14T20:19:57.421Z,101478.92
2019-02-14T20:22:27.012Z,101474.09
2019-02-14T20:24:56.841Z,101476.23
2019-02-14T20:27:26.243Z,101475.35
2019-02-14T20:29:55.608Z,101473.16
2019-02-14T20:32:25.909Z,101466.97
2019-02-14T20:34:55.442Z,101464.28
2019-02-14T20:37:24.845Z,101465.05
2019-02-14T20:39:54.498Z,101464.22
2019-02-14T20:42:23.896Z,101463.41
2019-02-14T20:44:54.196Z,101466.73
2019-02-14T20:47:24.722Z,101459.64
2019-02-14T20:49:54.770Z,101461.77
2019-02-14T20:52:25.674Z,101460.80
2019-02-14T20:54:55.132Z,101463.61
2019-02-14T20:57:24.543Z,101459.48
2019-02-14T20:59:54.158Z,101458.24
2019-02-14T21:02:23.554Z,101456.17
2019-02-14T21:04:52.950Z,101458.93
2019-02-14T21:07:24.012Z,101459.34
2019-02-14T21:09:53.414Z,101455.05
2019-02-14T21:12:22.787Z,101454.80
2019-02-14T21:14:52.277Z,101456.15
2019-02-14T21:17:21.733Z,101452.39
2019-02-14T21:19:51.079Z,101453.03
2019-02-14T21:22:20.518Z,101452.45
2019-02-14T21:24:49.931Z,101447.88
2019-02-14T21:27:19.677Z,101445.94
2019-02-14T21:29:49.033Z,101445.42
2019-02-14T21:32:18.463Z,101445.96
2019-02-14T21:34:47.847Z,101443.33
2019-02-14T21:37:20.336Z,101439.86
2019-02-14T21:39:49.966Z,101438.09
2019-02-14T21:42:23.105Z,101436.87
2019-02-14T21:44:52.204Z,101435.55
2019-02-14T21:47:36.016Z,101433.66
2019-02-14T21:50:12.611Z,101438.27
2019-02-14T21:52:42.134Z,101437.68
2019-02-14T21:55:22.243Z,101437.56
2019-02-14T21:57:50.971Z,101436.14
2019-02-14T22:00:29.048Z,101434.24
2019-02-14T22:02:58.855Z,101426.53
2019-02-14T22:05:28.411Z,101433.52
2019-02-14T22:08:00.338Z,101438.77
2019-02-14T22:10:29.719Z,101434.50
2019-02-14T22:12:59.217Z,101437.58
2019-02-14T22:15:29.917Z,101431.23
2019-02-14T22:17:59.681Z,101427.23
2019-02-14T22:20:29.096Z,101427.60
2019-02-14T22:22:58.577Z,101432.34
2019-02-14T22:25:28.041Z,101431.41
2019-02-14T22:27:57.433Z,101437.32
2019-02-14T22:30:26.803Z,101437.39
2019-02-14T22:32:57.109Z,101437.50
2019-02-14T22:35:26.713Z,101439.14
2019-02-14T22:37:56.860Z,101439.72
2019-02-14T22:40:26.318Z,101438.72
2019-02-14T22:42:55.754Z,101435.83
2019-02-14T22:45:25.131Z,101439.00
2019-02-14T22:47:54.539Z,101436.31
2019-02-14T22:50:23.908Z,101440.15
2019-02-14T22:52:53.292Z,101443.36
2019-02-14T22:55:23.007Z,101438.63
2019-02-14T22:57:52.367Z,101439.90
2019-02-14T23:00:40.995Z,101442.05
2019-02-14T23:03:10.494Z,101438.27
2019-02-14T23:05:39.884Z,101437.12
2019-02-14T23:08:09.621Z,101442.05
2019-02-14T23:10:39.000Z,101442.44
2019-02-14T23:13:08.401Z,101446.94
2019-02-14T23:15:37.766Z,101441.42
2019-02-14T23:18:07.365Z,101444.06
2019-02-14T23:20:36.859Z,101445.16
2019-02-14T23:23:06.309Z,101439.74
2019-02-14T23:25:37.712Z,101436.50
2019-02-14T23:28:07.166Z,101444.26
2019-02-14T23:30:38.775Z,101440.55
2019-02-14T23:33:07.702Z,101442.22
2019-02-14T23:35:37.226Z,101443.17
2019-02-14T23:38:06.578Z,101449.73
2019-02-14T23:40:36.278Z,101453.41
2019-02-14T23:43:07.336Z,101448.28
2019-02-14T23:45:36.828Z,101453.73
2019-02-14T23:48:06.234Z,101459.14
2019-02-14T23:50:35.602Z,101453.95
2019-02-14T23:53:05.009Z,101457.41
2019-02-14T23:55:34.387Z,101456.83
2019-02-14T23:58:03.787Z,101453.43
